Time;durP1;ratioP1;P1;durP2;ratioP2;P2;SDS_P1;SDS_P2;PMS_P1;PMS_P2;Temp;Humidity;BMP_temperature;BMP_pressure;BME280_temperature;BME280_humidity;BME280_pressure;Samples;Min_cycle;Max_cycle;Signal;HPM_P1;HPM_P2
2022/04/16 00:00:27;;;;;;;;;20.50;19.25;;;;;16.52;53.40;102409.47;5003138;28;45247;-58
2022/04/16 00:02:54;;;;;;;;;22.75;17.50;;;;;16.51;53.62;102411.28;4985443;28;45369;-58
2022/04/16 00:05:20;;;;;;;;;20.50;16.50;;;;;16.49;53.75;102418.47;5003200;28;45321;-59
2022/04/16 00:08:06;;;;;;;;;17.75;17.00;;;;;16.48;53.82;102409.63;5002929;28;45357;-59
2022/04/16 00:10:32;;;;;;;;;25.00;20.75;;;;;16.46;53.69;102410.69;5002572;28;45322;-59
2022/04/16 00:12:57;;;;;;;;;21.25;18.00;;;;;16.43;53.90;102406.41;5002980;28;45302;-58
2022/04/16 00:15:22;;;;;;;;;21.25;14.25;;;;;16.40;54.06;102403.03;5002832;28;45223;-58
2022/04/16 00:17:48;;;;;;;;;19.25;18.75;;;;;16.39;54.28;102398.66;5002512;28;45261;-59
2022/04/16 00:20:14;;;;;;;;;25.00;18.75;;;;;16.39;54.31;102399.53;4984391;28;45330;-59
2022/04/16 00:22:39;;;;;;;;;18.75;17.00;;;;;16.38;54.18;102397.81;5002750;28;45160;-59
2022/04/16 00:25:06;;;;;;;;;20.50;19.00;;;;;16.37;54.11;102401.41;5002902;28;45214;-58
2022/04/16 00:27:31;;;;;;;;;19.75;18.50;;;;;16.35;54.13;102395.34;5002388;28;46020;-59
2022/04/16 00:29:56;;;;;;;;;22.75;17.50;;;;;16.34;54.28;102396.25;5001312;28;45179;-59
2022/04/16 00:32:22;;;;;;;;;20.75;14.75;;;;;16.30;54.49;102388.56;5002602;28;45553;-59
2022/04/16 00:34:47;;;;;;;;;18.50;16.50;;;;;16.30;54.21;102393.88;5002827;28;45298;-58
2022/04/16 00:37:13;;;;;;;;;19.75;16.50;;;;;16.28;54.82;102391.31;5002434;28;45379;-59
2022/04/16 00:39:38;;;;;;;;;20.00;20.00;;;;;16.26;54.47;102389.66;5002185;28;45341;-59
2022/04/16 00:42:04;;;;;;;;;19.25;18.50;;;;;16.25;54.71;102390.63;5002536;28;45328;-59
2022/04/16 00:44:29;;;;;;;;;13.00;13.00;;;;;16.21;54.58;102392.59;5002822;28;45377;-59
2022/04/16 00:46:55;;;;;;;;;21.50;19.25;;;;;16.21;54.59;102389.94;5002126;28;46010;-59
2022/04/16 00:49:20;;;;;;;;;19.25;15.50;;;;;16.18;54.66;102387.44;5002504;28;45396;-59
2022/04/16 00:51:48;;;;;;;;;19.75;17.00;;;;;16.17;54.88;102388.38;5002483;28;45327;-59
2022/04/16 00:54:13;;;;;;;;;20.00;16.00;;;;;16.12;54.88;102382.50;5002577;28;45208;-59
2022/04/16 00:56:39;;;;;;;;;20.75;18.50;;;;;16.08;54.73;102381.78;5001894;28;46074;-59
2022/04/16 00:59:05;;;;;;;;;20.50;20.25;;;;;16.04;54.88;102387.38;5002249;28;45238;-59
2022/04/16 01:01:32;;;;;;;;;19.75;18.75;;;;;15.99;55.18;102379.66;5002283;28;45307;-59
2022/04/16 01:03:59;;;;;;;;;18.25;18.00;;;;;15.95;55.31;102382.56;5002414;28;45449;-59
2022/04/16 01:06:36;;;;;;;;;16.50;14.25;;;;;15.89;55.36;102389.09;5002093;28;45379;-59
2022/04/16 01:09:02;;;;;;;;;18.25;16.25;;;;;15.85;55.60;102387.53;5002218;28;45359;-59
2022/04/16 01:11:27;;;;;;;;;15.25;14.00;;;;;15.81;55.50;102381.53;5001892;28;45317;-59
2022/04/16 01:13:53;;;;;;;;;20.00;18.00;;;;;15.81;55.77;102380.69;5002251;28;45216;-59
2022/04/16 01:16:19;;;;;;;;;21.50;18.75;;;;;15.79;55.73;102380.75;5001778;28;45316;-59
2022/04/16 01:18:47;;;;;;;;;19.75;16.75;;;;;15.77;55.82;102374.66;5001848;28;45318;-58
2022/04/16 01:21:13;;;;;;;;;16.75;14.00;;;;;15.73;55.63;102370.47;5002223;28;45405;-59
2022/04/16 01:23:39;;;;;;;;;19.50;18.25;;;;;15.70;55.91;102377.75;5002278;28;45373;-59
2022/04/16 01:26:05;;;;;;;;;22.00;18.25;;;;;15.71;55.83;102376.78;5001474;28;45495;-59
2022/04/16 01:28:30;;;;;;;;;24.25;21.00;;;;;15.68;55.90;102376.97;5001752;28;45468;-59
2022/04/16 01:30:56;;;;;;;;;22.50;16.75;;;;;15.65;56.17;102382.47;5001531;28;45245;-59
2022/04/16 01:33:22;;;;;;;;;23.75;18.50;;;;;15.62;56.25;102380.81;5001690;28;45488;-59
2022/04/16 01:35:53;;;;;;;;;17.50;15.75;;;;;15.58;56.34;102388.06;5001477;28;45256;-58
2022/04/16 01:38:19;;;;;;;;;23.00;17.75;;;;;15.52;56.40;102392.84;5001513;28;45302;-59
2022/04/16 01:40:44;;;;;;;;;24.00;19.50;;;;;15.51;56.47;102388.47;5001631;28;45324;-59
2022/04/16 01:43:10;;;;;;;;;19.75;17.00;;;;;15.51;56.84;102380.50;5001917;28;45650;-58
2022/04/16 01:45:35;;;;;;;;;20.25;19.25;;;;;15.50;56.74;102389.44;5001315;28;45498;-59
2022/04/16 01:48:01;;;;;;;;;21.00;19.00;;;;;15.47;56.82;102389.56;5001481;28;45365;-59
2022/04/16 01:50:27;;;;;;;;;25.25;22.00;;;;;15.41;56.84;102389.94;5001673;28;45401;-59
2022/04/16 01:52:52;;;;;;;;;23.25;18.50;;;;;15.37;57.08;102378.59;5001827;28;45330;-59
2022/04/16 01:55:18;;;;;;;;;18.50;16.25;;;;;15.36;56.87;102384.84;5001054;28;45234;-59
2022/04/16 01:57:44;;;;;;;;;21.75;19.00;;;;;15.34;56.97;102387.59;5001497;28;45228;-59
2022/04/16 02:00:12;;;;;;;;;27.75;20.75;;;;;15.28;57.00;102398.53;5001123;28;45566;-59
2022/04/16 02:02:38;;;;;;;;;19.50;16.75;;;;;15.20;57.31;102398.06;5001419;28;45563;-59
2022/04/16 02:05:08;;;;;;;;;25.25;20.25;;;;;15.13;57.38;102395.81;5000914;28;46224;-59
2022/04/16 02:07:33;;;;;;;;;20.00;18.00;;;;;15.13;57.62;102395.81;5001193;28;45191;-59
2022/04/16 02:10:00;;;;;;;;;20.00;15.75;;;;;15.08;57.72;102388.94;5001096;28;45637;-59
2022/04/16 02:12:26;;;;;;;;;22.25;18.75;;;;;15.08;57.51;102383.63;5001344;28;45499;-58
2022/04/16 02:14:51;;;;;;;;;20.25;16.25;;;;;15.10;57.58;102385.38;5000825;28;45238;-59
2022/04/16 02:17:16;;;;;;;;;20.50;18.50;;;;;15.05;57.76;102386.44;5001192;28;45270;-59
2022/04/16 02:19:43;;;;;;;;;21.00;17.75;;;;;15.05;57.80;102381.13;5001102;28;45300;-58
2022/04/16 02:22:08;;;;;;;;;21.75;18.00;;;;;15.03;57.68;102377.72;5001191;28;45542;-59
2022/04/16 02:24:34;;;;;;;;;25.25;19.50;;;;;14.99;57.76;102385.91;5000659;28;46133;-59
2022/04/16 02:26:59;;;;;;;;;19.00;16.75;;;;;14.93;58.09;102380.91;5001087;28;45334;-59
2022/04/16 02:29:25;;;;;;;;;18.50;18.00;;;;;14.88;58.10;102388.25;5000975;28;45314;-58
2022/04/16 02:31:50;;;;;;;;;24.75;20.25;;;;;14.81;58.11;102377.09;5000894;28;45325;-59
2022/04/16 02:34:18;;;;;;;;;18.50;18.25;;;;;14.78;58.31;102382.56;5000685;28;46212;-59
2022/04/16 02:36:44;;;;;;;;;23.00;17.50;;;;;14.79;58.27;102385.13;5000900;28;45239;-59
2022/04/16 02:39:09;;;;;;;;;23.50;22.25;;;;;14.79;58.48;102395.75;5000851;28;45264;-59
2022/04/16 02:41:35;;;;;;;;;24.25;20.00;;;;;14.71;58.48;102387.31;5000878;28;45252;-59
2022/04/16 02:44:01;;;;;;;;;20.50;17.50;;;;;14.68;58.75;102391.91;5001662;28;45336;-59
2022/04/16 02:49:15;;;;;;;;;22.25;18.25;;;;;14.64;58.49;102393.88;5004373;28;45413;-59
2022/04/16 02:51:42;;;;;;;;;29.75;26.00;;;;;14.65;58.64;102392.94;5004294;28;45497;-59
2022/04/16 02:54:07;;;;;;;;;33.75;28.75;;;;;14.62;58.79;102389.59;5004105;28;46176;-58
2022/04/16 02:56:33;;;;;;;;;30.00;20.75;;;;;14.60;58.92;102388.78;5003850;28;45331;-59
2022/04/16 02:58:58;;;;;;;;;29.50;24.50;;;;;14.56;58.95;102385.44;5004211;28;45503;-58
2022/04/16 03:01:24;;;;;;;;;21.75;21.25;;;;;14.58;58.98;102386.19;5003916;28;45495;-58
2022/04/16 03:03:50;;;;;;;;;23.75;21.25;;;;;14.59;58.61;102387.06;5003930;28;45274;-58
2022/04/16 03:06:15;;;;;;;;;28.75;26.00;;;;;14.58;58.80;102380.91;4986093;28;45330;-58
2022/04/16 03:08:41;;;;;;;;;23.50;22.00;;;;;14.55;58.80;102374.91;5004288;28;45222;-59
2022/04/16 03:11:06;;;;;;;;;26.25;21.50;;;;;14.51;58.99;102375.03;5003745;28;45584;-59
2022/04/16 03:13:35;;;;;;;;;33.25;27.50;;;;;14.53;59.19;102377.59;5004016;28;45243;-59
2022/04/16 03:18:46;;;;;;;;;28.75;21.25;;;;;14.48;59.03;102385.81;5003811;28;45483;-59
2022/04/16 03:21:12;;;;;;;;;28.50;25.00;;;;;14.48;59.29;102392.91;5003801;28;45290;-59
2022/04/16 03:23:38;;;;;;;;;26.00;24.00;;;;;14.45;59.21;102387.69;5003766;28;46064;-59
2022/04/16 03:26:03;;;;;;;;;24.25;22.00;;;;;14.43;59.27;102387.78;5003372;28;45261;-59
2022/04/16 03:28:30;;;;;;;;;25.25;23.50;;;;;14.43;59.02;102390.44;5003915;28;45210;-59
2022/04/16 03:30:55;;;;;;;;;32.00;27.00;;;;;14.42;59.07;102382.56;5003291;28;45238;-58
2022/04/16 03:33:21;;;;;;;;;32.00;28.25;;;;;14.39;59.16;102396.84;5003554;28;45251;-59
2022/04/16 03:35:47;;;;;;;;;34.00;27.25;;;;;14.38;59.38;102391.63;5003514;28;45242;-59
2022/04/16 03:38:12;;;;;;;;;30.75;29.00;;;;;14.39;59.43;102382.72;5003578;28;45204;-59
2022/04/16 03:40:38;;;;;;;;;33.50;26.50;;;;;14.35;59.27;102386.44;5003352;28;45404;-59
2022/04/16 03:43:04;;;;;;;;;27.50;22.75;;;;;14.30;59.42;102394.66;5003404;28;45336;-58
2022/04/16 03:45:35;;;;;;;;;29.50;26.00;;;;;14.27;59.34;102381.50;5003112;28;45338;-59
2022/04/16 03:48:03;;;;;;;;;36.25;31.50;;;;;14.25;59.37;102386.91;5003496;28;45310;-59
2022/04/16 03:50:30;;;;;;;;;39.25;34.50;;;;;14.22;59.55;102386.19;5003397;28;45552;-59
2022/04/16 03:52:56;;;;;;;;;33.75;26.50;;;;;14.24;59.45;102389.63;5003188;28;45491;-59
2022/04/16 04:01:01;;;;;;;;;33.00;28.25;;;;;14.19;59.50;102378.38;5003188;28;45334;-59
2022/04/16 04:03:27;;;;;;;;;29.50;25.00;;;;;14.20;59.64;102383.59;5002915;28;45612;-58
2022/04/16 04:05:54;;;;;;;;;30.75;25.75;;;;;14.20;59.63;102385.38;5003051;28;45341;-58
2022/04/16 04:08:21;;;;;;;;;30.00;28.00;;;;;14.18;59.58;102379.31;5002962;28;45223;-59
2022/04/16 04:10:47;;;;;;;;;28.75;24.00;;;;;14.15;59.58;102379.47;5003195;28;45440;-58
2022/04/16 04:13:13;;;;;;;;;30.75;28.75;;;;;14.11;59.69;102378.75;5002647;28;45349;-58
2022/04/16 04:15:40;;;;;;;;;39.25;33.75;;;;;14.08;59.72;102386.84;5002965;28;45399;-58
2022/04/16 04:18:05;;;;;;;;;34.50;28.75;;;;;14.06;59.80;102386.06;5002701;28;45467;-59
2022/04/16 04:20:31;;;;;;;;;35.50;31.00;;;;;14.05;59.68;102383.47;5003123;28;45568;-59
2022/04/16 04:22:57;;;;;;;;;29.00;27.00;;;;;14.00;59.93;102394.31;5002434;28;45323;-58
2022/04/16 04:25:22;;;;;;;;;26.75;23.25;;;;;13.95;60.06;102388.34;5002784;28;45352;-58
2022/04/16 04:27:48;;;;;;;;;35.75;31.50;;;;;13.91;60.09;102392.09;5001382;28;45290;-58
2022/04/16 04:30:14;;;;;;;;;29.75;26.00;;;;;13.90;60.03;102395.66;5002680;28;45325;-58
2022/04/16 04:32:40;;;;;;;;;38.50;32.50;;;;;13.85;60.36;102403.84;5002321;28;46180;-59
2022/04/16 04:35:07;;;;;;;;;39.75;33.25;;;;;13.80;60.26;102397.00;5002657;28;45222;-59
2022/04/16 04:37:33;;;;;;;;;33.00;28.50;;;;;13.81;60.50;102402.25;5002662;28;45494;-59
2022/04/16 04:39:58;;;;;;;;;37.25;33.25;;;;;13.80;60.36;102405.81;5002368;28;45452;-59
2022/04/16 04:42:31;;;;;;;;;33.75;28.25;;;;;13.80;60.35;102403.16;5002198;28;45238;-60
2022/04/16 04:44:57;;;;;;;;;37.50;30.75;;;;;13.78;60.37;102399.75;5002442;28;45249;-59
2022/04/16 04:47:23;;;;;;;;;33.25;31.25;;;;;13.73;60.29;102395.56;5002537;28;45368;-58
2022/04/16 04:49:49;;;;;;;;;32.25;30.00;;;;;13.64;60.59;102405.66;5002500;28;45620;-58
2022/04/16 04:52:24;;;;;;;;;36.50;31.50;;;;;13.59;60.59;102399.75;5002183;28;46072;-59
2022/04/16 04:54:49;;;;;;;;;36.00;32.75;;;;;13.55;60.91;102402.56;5002103;28;45411;-59
2022/04/16 04:57:15;;;;;;;;;37.50;32.25;;;;;13.51;60.93;102403.63;5002419;28;45229;-59
2022/04/16 04:59:40;;;;;;;;;41.00;33.00;;;;;13.46;61.15;102401.22;5002292;28;45572;-59
2022/04/16 05:02:06;;;;;;;;;35.50;31.75;;;;;13.44;61.07;102408.38;5002106;28;45419;-59
2022/04/16 05:04:32;;;;;;;;;37.75;34.00;;;;;13.43;61.11;102411.94;5002176;28;45349;-59
2022/04/16 05:06:57;;;;;;;;;35.25;32.50;;;;;13.42;61.18;102418.13;5001680;28;45310;-58
2022/04/16 05:09:23;;;;;;;;;33.00;28.50;;;;;13.41;61.30;102413.78;5002190;28;45298;-59
2022/04/16 05:11:49;;;;;;;;;33.75;28.25;;;;;13.43;61.28;102413.69;5001904;28;46287;-59
2022/04/16 05:14:15;;;;;;;;;42.75;31.50;;;;;13.40;61.62;102415.56;5002076;28;45333;-58
2022/04/16 05:16:41;;;;;;;;;32.75;31.25;;;;;13.40;61.29;102417.34;5001852;28;45234;-59
2022/04/16 05:19:07;;;;;;;;;44.00;35.25;;;;;13.36;61.33;102424.59;5002081;28;45253;-59
2022/04/16 05:21:32;;;;;;;;;44.00;35.50;;;;;13.34;61.59;102422.91;5001649;28;46174;-58
2022/04/16 05:23:58;;;;;;;;;40.50;32.50;;;;;13.31;61.68;102423.06;5001867;28;45352;-59
2022/04/16 05:26:23;;;;;;;;;37.25;32.25;;;;;13.30;61.71;102432.78;5001722;28;45324;-59
2022/04/16 05:28:49;;;;;;;;;42.25;35.25;;;;;13.25;61.68;102437.41;5001948;28;45273;-58
2022/04/16 05:31:14;;;;;;;;;34.50;31.25;;;;;13.24;61.72;102432.19;5001342;28;45372;-58
2022/04/16 05:36:24;;;;;;;;;35.00;31.25;;;;;13.31;61.96;102444.22;5002068;28;45377;-58
2022/04/16 05:38:49;;;;;;;;;38.50;33.75;;;;;13.31;61.76;102445.09;5001657;28;45499;-58
2022/04/16 05:41:14;;;;;;;;;37.75;33.00;;;;;13.26;61.71;102441.78;5001460;28;45287;-58
2022/04/16 05:43:40;;;;;;;;;47.50;35.00;;;;;13.27;61.71;102446.16;5001478;28;45432;-59
2022/04/16 05:46:06;;;;;;;;;40.75;34.50;;;;;13.25;61.82;102450.63;5001622;28;45365;-58
2022/04/16 05:48:31;;;;;;;;;43.00;35.25;;;;;13.26;61.70;102451.50;5001523;28;45411;-58
2022/04/16 05:50:58;;;;;;;;;41.75;35.25;;;;;13.32;61.79;102462.69;5001448;28;46261;-59
2022/04/16 05:53:24;;;;;;;;;35.25;31.25;;;;;13.39;61.50;102452.69;5001442;28;45247;-59
2022/04/16 05:55:53;;;;;;;;;42.00;36.25;;;;;13.43;61.37;102454.31;5001416;28;45229;-58
2022/04/16 05:58:19;;;;;;;;;44.75;36.00;;;;;13.48;61.09;102462.03;5001286;28;45420;-59
2022/04/16 06:00:45;;;;;;;;;45.50;36.25;;;;;13.49;61.06;102466.38;5001146;28;45359;-58
2022/04/16 06:03:10;;;;;;;;;44.50;36.00;;;;;13.52;61.17;102472.41;5001253;28;45310;-59
2022/04/16 06:05:36;;;;;;;;;39.50;34.25;;;;;13.58;61.14;102471.28;5000243;28;45374;-59
2022/04/16 06:08:02;;;;;;;;;40.25;35.25;;;;;13.63;60.92;102474.59;5001313;28;45342;-59
2022/04/16 06:10:28;;;;;;;;;38.50;34.75;;;;;13.71;60.82;102474.25;5000872;28;46419;-59
2022/04/16 06:12:54;;;;;;;;;46.25;36.25;;;;;13.78;60.47;102471.25;5000994;28;45187;-59
2022/04/16 06:15:20;;;;;;;;;40.50;34.75;;;;;13.86;60.58;102474.41;5001214;28;45297;-59
2022/04/16 06:17:46;;;;;;;;;42.00;32.75;;;;;13.99;60.21;102468.56;5000539;28;45222;-59
2022/04/16 06:20:12;;;;;;;;;40.50;33.25;;;;;14.10;59.91;102466.28;5000352;28;46005;-59
2022/04/16 06:22:37;;;;;;;;;39.00;35.50;;;;;14.21;59.78;102470.13;5000717;28;45223;-59
2022/04/16 06:25:04;;;;;;;;;36.25;33.50;;;;;14.36;59.62;102470.34;5000935;28;45433;-58
2022/04/16 06:27:29;;;;;;;;;46.50;38.00;;;;;14.51;59.24;102477.59;5001098;28;45464;-58
2022/04/16 06:29:55;;;;;;;;;39.75;34.25;;;;;14.56;59.03;102474.75;5000808;28;46310;-58
2022/04/16 06:32:20;;;;;;;;;44.50;34.00;;;;;14.59;58.86;102474.59;5000683;28;45282;-58
2022/04/16 06:34:46;;;;;;;;;37.00;32.25;;;;;14.64;58.87;102481.38;5001239;28;45298;-58
2022/04/16 06:37:12;;;;;;;;;44.75;36.25;;;;;14.74;58.80;102482.66;5000818;28;45559;-58
2022/04/16 06:39:37;;;;;;;;;33.75;30.50;;;;;14.83;58.35;102477.81;5000579;28;45421;-58
2022/04/16 06:42:04;;;;;;;;;41.75;33.25;;;;;14.90;58.05;102481.91;5000601;28;45329;-58
2022/04/16 06:44:31;;;;;;;;;50.00;40.50;;;;;14.97;58.02;102481.53;5000898;28;45423;-58
2022/04/16 06:46:57;;;;;;;;;56.75;44.00;;;;;15.12;57.61;102485.19;5000686;28;45767;-59
2022/04/16 06:49:25;;;;;;;;;42.25;35.75;;;;;15.24;57.21;102481.91;5000634;28;45425;-59
2022/04/16 06:51:51;;;;;;;;;42.00;36.00;;;;;15.29;57.06;102481.69;5000608;28;45353;-59
2022/04/16 06:54:17;;;;;;;;;38.25;32.75;;;;;15.29;56.69;102485.19;5000793;28;45381;-59
2022/04/16 06:56:42;;;;;;;;;39.00;34.50;;;;;15.32;57.11;102476.22;5000600;28;45471;-59
2022/04/16 06:59:07;;;;;;;;;34.25;31.75;;;;;15.33;56.66;102486.78;4999872;28;45789;-58
2022/04/16 07:01:33;;;;;;;;;26.50;24.50;;;;;15.40;56.43;102481.97;5000306;28;45323;-59
2022/04/16 07:03:58;;;;;;;;;34.25;32.25;;;;;15.45;56.45;102482.63;5000620;28;45468;-58
2022/04/16 07:06:24;;;;;;;;;45.50;34.25;;;;;15.45;56.53;102473.78;4982859;28;45426;-59
2022/04/16 07:08:49;;;;;;;;;39.75;31.50;;;;;15.44;55.97;102475.59;5000295;28;46438;-59
2022/04/16 07:11:15;;;;;;;;;39.00;32.50;;;;;15.41;56.05;102470.44;5000124;28;45166;-59
2022/04/16 07:13:40;;;;;;;;;41.50;32.00;;;;;15.33;56.28;102464.69;5000512;28;45298;-59
2022/04/16 07:16:06;;;;;;;;;41.50;32.75;;;;;15.35;56.47;102470.75;5000336;28;45213;-59
2022/04/16 07:18:31;;;;;;;;;37.75;33.25;;;;;15.34;56.31;102459.28;5000094;28;45546;-59
2022/04/16 07:20:57;;;;;;;;;38.75;35.00;;;;;15.40;56.31;102462.53;5000133;28;45203;-59
2022/04/16 07:23:22;;;;;;;;;36.50;31.75;;;;;15.44;56.19;102469.41;5000342;28;45244;-58
2022/04/16 07:25:48;;;;;;;;;39.75;34.25;;;;;15.42;56.03;102472.16;5000230;28;45452;-59
2022/04/16 07:28:21;;;;;;;;;30.75;30.75;;;;;15.39;55.85;102474.94;5000322;28;45393;-58
2022/04/16 07:30:47;;;;;;;;;41.25;35.25;;;;;15.33;55.73;102476.16;5001991;28;45405;-58
2022/04/16 07:33:13;;;;;;;;;36.75;32.50;;;;;15.28;55.94;102470.22;5003797;28;45260;-59
2022/04/16 07:35:39;;;;;;;;;43.25;34.50;;;;;15.31;56.11;102472.69;5003706;28;45297;-58
2022/04/16 07:38:05;;;;;;;;;44.75;34.75;;;;;15.39;56.16;102474.94;5003368;28;45366;-59
2022/04/16 07:40:31;;;;;;;;;38.50;33.00;;;;;15.44;56.25;102474.72;5003178;28;45270;-59
2022/04/16 07:42:58;;;;;;;;;36.00;31.25;;;;;15.49;55.96;102476.22;5003549;28;45341;-59
2022/04/16 07:45:24;;;;;;;;;41.25;33.25;;;;;15.49;55.67;102483.34;5003520;28;45350;-58
2022/04/16 07:47:50;;;;;;;;;41.25;36.00;;;;;15.49;55.83;102481.53;5003271;28;45337;-59
2022/04/16 07:50:16;;;;;;;;;38.00;30.25;;;;;15.51;55.84;102477.00;5003203;28;45186;-59
2022/04/16 07:52:43;;;;;;;;;43.25;35.00;;;;;15.56;55.70;102485.59;5003526;28;45236;-59
2022/04/16 07:55:08;;;;;;;;;42.50;36.75;;;;;15.59;55.84;102485.41;5003124;28;45336;-59
2022/04/16 07:57:34;;;;;;;;;38.00;32.25;;;;;15.68;56.17;102489.41;5003053;28;46245;-59
2022/04/16 07:59:59;;;;;;;;;48.25;36.75;;;;;15.71;55.73;102483.91;5002794;28;45341;-59
2022/04/16 08:02:25;;;;;;;;;39.00;33.75;;;;;15.80;55.62;102488.78;5003187;28;45550;-59
2022/04/16 08:04:50;;;;;;;;;34.00;31.50;;;;;15.83;55.46;102488.59;5003189;28;45329;-60
2022/04/16 08:07:18;;;;;;;;;39.75;32.75;;;;;15.80;55.74;102493.19;5002978;28;45317;-59
2022/04/16 08:09:43;;;;;;;;;43.00;34.75;;;;;15.83;55.54;102496.56;5002813;28;45179;-59
2022/04/16 08:12:09;;;;;;;;;47.00;34.75;;;;;15.86;55.67;102491.09;5003165;28;45224;-59
2022/04/16 08:14:34;;;;;;;;;45.00;35.25;;;;;15.91;55.71;102494.38;5003029;28;45291;-59
2022/04/16 08:17:00;;;;;;;;;44.75;34.25;;;;;15.96;55.39;102499.44;5002401;28;45227;-59
2022/04/16 08:19:25;;;;;;;;;38.50;33.25;;;;;16.02;55.10;102500.88;5002880;28;45175;-59
2022/04/16 08:21:53;;;;;;;;;40.75;34.25;;;;;16.07;55.23;102498.84;5003056;28;45163;-59
2022/04/16 08:24:38;;;;;;;;;37.50;33.75;;;;;16.09;55.23;102500.47;5002639;28;45611;-59
2022/04/16 08:27:04;;;;;;;;;40.25;35.75;;;;;16.14;55.01;102509.06;5002761;28;45396;-59
2022/04/16 08:29:30;;;;;;;;;47.00;35.50;;;;;16.19;55.02;102501.72;5002691;28;45313;-59
2022/04/16 08:31:55;;;;;;;;;44.25;35.25;;;;;16.24;54.79;102506.75;5002610;28;45317;-59
2022/04/16 08:34:21;;;;;;;;;40.75;34.25;;;;;16.22;54.80;102506.00;5002676;28;45584;-59
2022/04/16 08:36:47;;;;;;;;;33.00;28.50;;;;;16.21;54.71;102511.41;5002380;28;45947;-59
2022/04/16 08:39:12;;;;;;;;;40.50;34.75;;;;;16.19;54.87;102508.81;5002133;28;45366;-60
2022/04/16 08:41:39;;;;;;;;;37.50;34.75;;;;;16.24;54.99;102508.56;5001767;28;45325;-60
2022/04/16 08:44:05;;;;;;;;;34.00;31.50;;;;;16.25;54.96;102510.28;5002536;28;45242;-59
2022/04/16 08:46:32;;;;;;;;;48.25;38.25;;;;;16.29;55.15;102507.38;5002411;28;46075;-59
2022/04/16 08:48:59;;;;;;;;;47.00;36.25;;;;;16.24;55.29;102514.75;5002242;28;45393;-59
2022/04/16 08:51:30;;;;;;;;;38.75;33.25;;;;;16.27;55.29;102503.91;5002653;28;45273;-59
2022/04/16 08:53:56;;;;;;;;;41.25;33.75;;;;;16.36;55.04;102507.91;5002314;28;45512;-59
2022/04/16 08:56:22;;;;;;;;;36.00;31.50;;;;;16.43;55.12;102514.56;5002151;28;45900;-59
2022/04/16 08:58:47;;;;;;;;;37.00;30.00;;;;;16.55;54.81;102519.22;5002224;28;45338;-59
2022/04/16 09:01:13;;;;;;;;;32.75;30.75;;;;;16.63;54.09;102516.97;5002391;28;45218;-59
2022/04/16 09:03:40;;;;;;;;;28.50;23.50;;;;;16.69;54.15;102515.81;5002232;28;45507;-59
2022/04/16 09:06:07;;;;;;;;;35.25;31.25;;;;;16.82;54.02;102507.97;5002011;28;45312;-59
2022/04/16 09:08:34;;;;;;;;;39.50;32.75;;;;;16.94;53.66;102518.78;5001928;28;45400;-59
2022/04/16 09:11:11;;;;;;;;;32.50;27.00;;;;;17.03;53.41;102512.94;5002371;28;45175;-59
2022/04/16 09:13:50;;;;;;;;;37.25;32.50;;;;;17.09;53.45;102510.88;4990226;28;45478;-59
2022/04/16 09:16:17;;;;;;;;;32.75;30.50;;;;;17.16;53.45;102525.53;5001816;28;46135;-59
2022/04/16 09:18:53;;;;;;;;;34.25;31.00;;;;;17.25;53.21;102514.34;5001906;28;45396;-59
2022/04/16 09:21:27;;;;;;;;;42.75;34.50;;;;;17.34;53.14;102507.59;5001876;28;45314;-60
2022/04/16 09:23:58;;;;;;;;;37.75;32.00;;;;;17.34;53.10;102500.47;5002223;28;45349;-59
2022/04/16 09:26:30;;;;;;;;;36.00;29.00;;;;;17.37;52.99;102500.28;5001612;28;45302;-59
2022/04/16 09:28:55;;;;;;;;;37.00;29.50;;;;;17.42;53.01;102500.88;5001851;28;45345;-59
2022/04/16 09:31:28;;;;;;;;;29.50;23.50;;;;;17.53;52.30;102490.41;5001661;28;45720;-59
2022/04/16 09:33:55;;;;;;;;;30.00;26.50;;;;;17.62;51.72;102490.81;5001793;28;45437;-59
2022/04/16 09:36:27;;;;;;;;;25.25;23.75;;;;;17.64;51.44;102489.78;5001714;28;45197;-59
2022/04/16 09:39:04;;;;;;;;;30.00;27.00;;;;;17.75;51.43;102491.81;5001572;28;45527;-59
2022/04/16 09:41:31;;;;;;;;;31.25;27.25;;;;;17.86;52.11;102497.34;5001734;28;45327;-59
2022/04/16 09:43:56;;;;;;;;;33.75;30.00;;;;;17.94;51.67;102492.41;5001571;28;45389;-60
2022/04/16 09:46:26;;;;;;;;;35.00;27.75;;;;;17.98;51.74;102490.38;5001345;28;46079;-60
2022/04/16 09:48:55;;;;;;;;;41.00;30.50;;;;;17.97;51.42;102486.84;5001179;28;45341;-59
2022/04/16 09:51:24;;;;;;;;;26.50;24.25;;;;;18.01;50.59;102495.50;5001737;28;45230;-59
2022/04/16 09:53:52;;;;;;;;;30.00;26.50;;;;;18.01;50.60;102483.06;5001230;28;45311;-59
2022/04/16 09:56:20;;;;;;;;;34.00;28.00;;;;;18.04;50.85;102477.53;5001075;28;46032;-60
2022/04/16 09:58:54;;;;;;;;;27.25;25.00;;;;;18.07;50.88;102479.13;5001229;28;45238;-60
2022/04/16 10:01:22;;;;;;;;;27.75;24.50;;;;;18.12;50.24;102483.22;5001149;28;45230;-59
2022/04/16 10:03:49;;;;;;;;;27.00;25.00;;;;;18.14;49.46;102478.66;5001431;28;45230;-60
2022/04/16 10:06:15;;;;;;;;;17.25;15.00;;;;;18.18;49.41;102481.13;5001171;28;46224;-60
2022/04/16 10:08:41;;;;;;;;;27.75;25.25;;;;;18.24;50.10;102484.25;5001192;28;45404;-60
2022/04/16 10:11:08;;;;;;;;;23.50;19.50;;;;;18.28;49.04;102490.25;5001055;28;45348;-60
2022/04/16 10:13:52;;;;;;;;;21.75;17.50;;;;;18.33;49.37;102490.84;5001370;28;45233;-60
2022/04/16 10:16:30;;;;;;;;;20.50;18.25;;;;;18.44;48.65;102485.66;5001000;28;46060;-60
2022/04/16 10:18:57;;;;;;;;;27.25;21.75;;;;;18.52;48.09;102485.16;4976289;28;45278;-60
2022/04/16 10:21:22;;;;;;;;;22.00;20.75;;;;;18.56;48.16;102492.00;5000885;28;45313;-60
2022/04/16 10:23:48;;;;;;;;;22.75;20.25;;;;;18.62;48.63;102489.78;5001311;28;46519;-60
2022/04/16 10:26:15;;;;;;;;;23.00;19.75;;;;;18.69;48.67;102484.94;5000582;28;45540;-60
2022/04/16 10:28:54;;;;;;;;;28.75;22.75;;;;;18.77;48.21;102484.44;5000838;28;45325;-60
2022/04/16 10:31:28;;;;;;;;;24.25;20.00;;;;;18.86;48.50;102489.16;5000729;28;45311;-59
2022/04/16 10:34:05;;;;;;;;;25.25;23.25;;;;;18.95;48.68;102483.19;5000983;28;45504;-59
2022/04/16 10:36:44;;;;;;;;;27.75;21.50;;;;;19.02;48.36;102483.66;5000750;28;45351;-59
2022/04/16 10:39:16;;;;;;;;;24.50;23.25;;;;;19.01;47.78;102480.13;5000685;28;45290;-59
2022/04/16 10:41:55;;;;;;;;;25.75;23.25;;;;;18.99;47.42;102473.19;5000972;28;45301;-60
2022/04/16 10:44:21;;;;;;;;;21.50;19.00;;;;;18.92;47.21;102480.75;5000954;28;45486;-60
2022/04/16 10:46:48;;;;;;;;;19.75;18.00;;;;;18.92;47.85;102480.75;5000723;28;46256;-60
2022/04/16 10:49:16;;;;;;;;;26.00;24.50;;;;;18.96;47.50;102474.25;5000798;28;45234;-60
2022/04/16 10:51:41;;;;;;;;;19.50;18.25;;;;;19.01;47.29;102471.25;5000746;28;45346;-60
2022/04/16 10:54:12;;;;;;;;;15.75;15.00;;;;;19.08;46.56;102478.75;5000803;28;45401;-60
2022/04/16 10:56:41;;;;;;;;;18.25;15.50;;;;;19.13;45.59;102473.13;5000570;28;45333;-60
2022/04/16 10:59:08;;;;;;;;;14.50;14.50;;;;;19.13;45.29;102471.28;5000582;28;45454;-59
2022/04/16 11:01:34;;;;;;;;;14.25;13.00;;;;;19.18;45.17;102482.50;5000524;28;45298;-60
2022/04/16 11:04:13;;;;;;;;;14.75;14.00;;;;;19.22;44.72;102481.34;5000724;28;45337;-59
2022/04/16 11:06:43;;;;;;;;;16.75;13.25;;;;;19.25;44.66;102477.59;5003735;28;45352;-59
2022/04/16 11:09:15;;;;;;;;;16.00;14.00;;;;;19.30;44.39;102474.63;5003665;28;45439;-59
2022/04/16 11:11:41;;;;;;;;;16.50;15.00;;;;;19.34;44.59;102470.78;5003843;28;45650;-60
2022/04/16 11:14:10;;;;;;;;;15.50;14.50;;;;;19.44;44.57;102466.53;5003791;28;45437;-59
2022/04/16 11:16:44;;;;;;;;;17.25;15.25;;;;;19.51;44.61;102463.31;5003522;28;46256;-59
2022/04/16 11:19:14;;;;;;;;;19.00;15.75;;;;;19.58;44.72;102458.41;5003812;28;45333;-59
2022/04/16 11:21:39;;;;;;;;;11.75;11.25;;;;;19.66;44.19;102465.88;5003947;28;45288;-59